Ohio — WOHN — position and weather

sailwx.info

Track history (hours):
 
Tides and Currents Weather Stations Pressure Air Temp Water Temp Dewpoint Dewpoint Depression Visibility Wind Speed Wind Dir Waves Ship Positions

Ohio

Owner: Crowley Petroleum Services, Inc., Jacksonville, FL. More information available from US FCC via Universal Licensing System and Coast Guard Vessel Documentation Center.

Last reported at 2018-Aug-20 01:56 UTC. Time now 2018-Aug-20 16:48 UTC.
Position N 29°39' W 089°57'.

Length 183 m; draft 10 m.

Type: Tanker. MMSI: 338227000.

Date/timePositionNaut miles runAvg speedWind from/ knotsBaromVisibWave heightAir tempDewpointWater temp
2018-Aug-20 01:56N 29°39' W 089°57'713.6
2018-Aug-20 01:25N 29°45' W 090°01'513.2
2018-Aug-20 01:00N 29°50' W 089°59'5 9.5
2018-Aug-20 00:28N 29°53' W 089°54'511.3
2018-Aug-20 00:00N 29°56' W 089°59'4 8.1
2018-Aug-19 23:30N 29°56' W 090°04'4 8.4
2018-Aug-19 23:00N 29°57' W 090°08'4 8.5
2018-Aug-19 22:30N 29°57' W 090°13'510.0
2018-Aug-19 22:00N 29°56' W 090°19'3 0.1
2018-Aug-18 14:49N 29°56' W 090°22'3 9.1
2018-Aug-18 14:27N 29°57' W 090°19'4 9.1
2018-Aug-18 14:00N 29°58' W 090°14'4 7.5
2018-Aug-18 13:30N 29°57' W 090°10'2 4.2
2018-Aug-18 13:00N 29°55' W 090°08'4 8.6
2018-Aug-18 12:30N 29°56' W 090°03'4 8.1
2018-Aug-18 12:00N 29°56' W 089°59'5 8.1
2018-Aug-18 11:25N 29°53' W 089°54'0 0.0
2018-Aug-18 08:01N 29°53' W 089°54'0 0.0
2018-Aug-18 07:37N 29°53' W 089°54'0 0.0
2018-Aug-17 11:13N 29°53' W 089°54'0 0.0
2018-Aug-17 10:55N 29°53' W 089°54'0 0.0
2018-Aug-17 09:37N 29°53' W 089°54'0 0.1
2018-Aug-17 09:25N 29°53' W 089°54'0 0.0
2018-Aug-17 08:49N 29°53' W 089°54'0 0.0
2018-Aug-17 08:19N 29°53' W 089°54'0 0.0
2018-Aug-17 07:01N 29°53' W 089°54'0 0.0
2018-Aug-17 06:52N 29°53' W 089°54'0 0.0
2018-Aug-17 06:19N 29°53' W 089°54'0 0.0
2018-Aug-17 05:55N 29°53' W 089°54'0 0.0
2018-Aug-17 05:13N 29°53' W 089°54'0 0.0
2018-Aug-17 04:55N 29°53' W 089°54'0 0.0
2018-Aug-17 02:37N 29°53' W 089°54'0 0.0
2018-Aug-17 02:25N 29°53' W 089°54'0 0.0
2018-Aug-16 23:55N 29°53' W 089°54'0 0.0
2018-Aug-16 15:25N 29°53' W 089°54'0 0.0
2018-Aug-16 14:55N 29°53' W 089°54'0 0.0
2018-Aug-16 14:31N 29°53' W 089°54'0 0.0
2018-Aug-16 14:01N 29°53' W 089°54'0 0.0
2018-Aug-16 13:25N 29°53' W 089°54'0 0.0
2018-Aug-16 13:01N 29°53' W 089°54'0 0.0
2018-Aug-16 12:28N 29°53' W 089°54'0 0.0
2018-Aug-16 11:37N 29°53' W 089°54'0 0.0
2018-Aug-16 11:28N 29°53' W 089°54'0 0.0
2018-Aug-16 09:54N 29°53' W 089°54'0 0.0
2018-Aug-16 09:19N 29°53' W 089°54'0 0.0
2018-Aug-16 08:52N 29°53' W 089°54'0 0.0
2018-Aug-16 08:30N 29°53' W 089°54'0 0.0
2018-Aug-16 08:01N 29°53' W 089°54'0 0.1
2018-Aug-16 07:30N 29°53' W 089°54'2 3.2
2018-Aug-16 07:00N 29°52' W 089°56'4 7.2
2018-Aug-16 06:30N 29°50' W 089°59'610.7
2018-Aug-16 05:59N 29°45' W 090°01'  
Track history (hours):
 
Tides and Currents Weather Stations Pressure Air Temp Water Temp Dewpoint Dewpoint Depression Visibility Wind Speed Wind Dir Waves Ship Positions

Ohio

Owner: Crowley Petroleum Services, Inc., Jacksonville, FL. More information available from US FCC via Universal Licensing System and Coast Guard Vessel Documentation Center.

Last reported at 2018-Aug-20 01:56 UTC. Time now 2018-Aug-20 16:48 UTC.
Position N 29°39' W 089°57'.

Length 183 m; draft 10 m.

Type: Tanker. MMSI: 338227000.

Date/timePositionNaut miles runAvg speedWind from/ knotsBaromVisibWave heightAir tempDewpointWater temp
2018-Aug-20 01:56N 29°39' W 089°57'713.6
2018-Aug-20 01:25N 29°45' W 090°01'513.2
2018-Aug-20 01:00N 29°50' W 089°59'5 9.5
2018-Aug-20 00:28N 29°53' W 089°54'511.3
2018-Aug-20 00:00N 29°56' W 089°59'4 8.1
2018-Aug-19 23:30N 29°56' W 090°04'4 8.4
2018-Aug-19 23:00N 29°57' W 090°08'4 8.5
2018-Aug-19 22:30N 29°57' W 090°13'510.0
2018-Aug-19 22:00N 29°56' W 090°19'3 0.1
2018-Aug-18 14:49N 29°56' W 090°22'3 9.1
2018-Aug-18 14:27N 29°57' W 090°19'4 9.1
2018-Aug-18 14:00N 29°58' W 090°14'4 7.5
2018-Aug-18 13:30N 29°57' W 090°10'2 4.2
2018-Aug-18 13:00N 29°55' W 090°08'4 8.6
2018-Aug-18 12:30N 29°56' W 090°03'4 8.1
2018-Aug-18 12:00N 29°56' W 089°59'5 8.1
2018-Aug-18 11:25N 29°53' W 089°54'0 0.0
2018-Aug-18 08:01N 29°53' W 089°54'0 0.0
2018-Aug-18 07:37N 29°53' W 089°54'0 0.0
2018-Aug-17 11:13N 29°53' W 089°54'0 0.0
2018-Aug-17 10:55N 29°53' W 089°54'0 0.0
2018-Aug-17 09:37N 29°53' W 089°54'0 0.1
2018-Aug-17 09:25N 29°53' W 089°54'0 0.0
2018-Aug-17 08:49N 29°53' W 089°54'0 0.0
2018-Aug-17 08:19N 29°53' W 089°54'0 0.0
2018-Aug-17 07:01N 29°53' W 089°54'0 0.0
2018-Aug-17 06:52N 29°53' W 089°54'0 0.0
2018-Aug-17 06:19N 29°53' W 089°54'0 0.0
2018-Aug-17 05:55N 29°53' W 089°54'0 0.0
2018-Aug-17 05:13N 29°53' W 089°54'0 0.0
2018-Aug-17 04:55N 29°53' W 089°54'0 0.0
2018-Aug-17 02:37N 29°53' W 089°54'0 0.0
2018-Aug-17 02:25N 29°53' W 089°54'0 0.0
2018-Aug-16 23:55N 29°53' W 089°54'0 0.0
2018-Aug-16 15:25N 29°53' W 089°54'0 0.0
2018-Aug-16 14:55N 29°53' W 089°54'0 0.0
2018-Aug-16 14:31N 29°53' W 089°54'0 0.0
2018-Aug-16 14:01N 29°53' W 089°54'0 0.0
2018-Aug-16 13:25N 29°53' W 089°54'0 0.0
2018-Aug-16 13:01N 29°53' W 089°54'0 0.0
2018-Aug-16 12:28N 29°53' W 089°54'0 0.0
2018-Aug-16 11:37N 29°53' W 089°54'0 0.0
2018-Aug-16 11:28N 29°53' W 089°54'0 0.0
2018-Aug-16 09:54N 29°53' W 089°54'0 0.0
2018-Aug-16 09:19N 29°53' W 089°54'0 0.0
2018-Aug-16 08:52N 29°53' W 089°54'0 0.0
2018-Aug-16 08:30N 29°53' W 089°54'0 0.0
2018-Aug-16 08:01N 29°53' W 089°54'0 0.1
2018-Aug-16 07:30N 29°53' W 089°54'2 3.2
2018-Aug-16 07:00N 29°52' W 089°56'4 7.2
2018-Aug-16 06:30N 29°50' W 089°59'610.7
2018-Aug-16 05:59N 29°45' W 090°01'  

Dump ship's entire track history